createdAt,value
2019-04-30T00:01:25.713Z,46.63
2019-04-30T00:06:34.506Z,46.90
2019-04-30T00:11:36.303Z,47.11
2019-04-30T00:16:40.070Z,47.02
2019-04-30T00:21:50.026Z,47.10
2019-04-30T00:26:52.437Z,47.13
2019-04-30T00:31:59.262Z,46.78
2019-04-30T00:36:59.837Z,46.39
2019-04-30T00:42:04.939Z,45.01
2019-04-30T00:47:08.799Z,42.74
2019-04-30T00:52:12.664Z,41.96
2019-04-30T00:57:16.212Z,41.37
2019-04-30T01:02:31.701Z,41.78
2019-04-30T01:07:32.417Z,41.71
2019-04-30T01:12:43.728Z,41.84
2019-04-30T01:17:45.331Z,42.06
2019-04-30T01:22:48.582Z,42.43
2019-04-30T01:27:52.079Z,42.38
2019-04-30T01:32:56.956Z,42.66
2019-04-30T01:38:04.083Z,43.08
2019-04-30T01:43:06.243Z,43.56
2019-04-30T01:48:12.794Z,44.02
2019-04-30T01:53:15.115Z,44.22
2019-04-30T01:58:20.295Z,44.48
2019-04-30T02:03:23.861Z,44.69
2019-04-30T02:08:29.388Z,44.85
2019-04-30T02:13:34.511Z,45.25
2019-04-30T02:18:39.420Z,45.40
2019-04-30T02:23:43.122Z,45.42
2019-04-30T02:28:46.718Z,45.76
2019-04-30T02:33:51.838Z,45.79
2019-04-30T02:39:02.286Z,45.84
2019-04-30T02:44:02.415Z,45.96
2019-04-30T02:49:06.563Z,45.76
2019-04-30T02:54:12.268Z,45.95
2019-04-30T02:59:15.860Z,45.81
2019-04-30T03:04:19.788Z,45.03
2019-04-30T03:09:23.446Z,43.41
2019-04-30T03:14:27.050Z,41.78
2019-04-30T03:19:50.047Z,41.33
2019-04-30T03:24:52.809Z,41.41
2019-04-30T03:29:56.371Z,41.57
2019-04-30T03:35:03.118Z,41.57
2019-04-30T03:40:12.700Z,42.22
2019-04-30T03:45:12.903Z,42.24
2019-04-30T03:50:19.597Z,42.37
2019-04-30T03:55:24.996Z,42.89
2019-04-30T04:00:46.585Z,43.11
2019-04-30T04:06:09.392Z,43.47
2019-04-30T04:11:14.443Z,43.69
2019-04-30T04:16:19.449Z,44.25
2019-04-30T04:21:23.262Z,43.90
2019-04-30T04:26:26.818Z,43.92
2019-04-30T04:31:30.390Z,44.37
2019-04-30T04:36:34.183Z,44.45
2019-04-30T04:41:39.948Z,44.63
2019-04-30T04:46:43.059Z,44.63
2019-04-30T04:51:49.177Z,44.87
2019-04-30T04:56:53.410Z,44.92
2019-04-30T05:01:57.176Z,45.03
2019-04-30T05:07:00.748Z,45.02
2019-04-30T05:12:05.059Z,44.77
2019-04-30T05:17:09.826Z,45.25
2019-04-30T05:22:13.565Z,44.85
2019-04-30T05:27:17.126Z,44.71
2019-04-30T05:32:20.708Z,44.60
2019-04-30T05:37:24.253Z,43.47
2019-04-30T05:42:28.546Z,41.94
2019-04-30T05:47:32.283Z,39.93
2019-04-30T05:52:35.855Z,39.61
2019-04-30T05:57:52.555Z,39.25
2019-04-30T06:02:44.754Z,39.80
2019-04-30T06:07:51.664Z,39.05
2019-04-30T06:12:55.620Z,39.14
2019-04-30T06:18:02.891Z,41.12
2019-04-30T06:23:05.296Z,41.65
2019-04-30T06:28:09.688Z,41.44
2019-04-30T06:33:13.528Z,41.51
2019-04-30T06:38:18.519Z,41.99
2019-04-30T06:43:22.549Z,42.21
2019-04-30T06:48:26.097Z,42.14
2019-04-30T06:53:29.695Z,42.98
2019-04-30T06:58:33.238Z,43.51
2019-04-30T07:03:38.777Z,43.51
2019-04-30T07:09:02.080Z,43.58
2019-04-30T07:14:05.629Z,43.29
2019-04-30T07:19:09.647Z,43.45
2019-04-30T07:24:13.218Z,43.36
2019-04-30T07:29:16.818Z,42.97
2019-04-30T07:34:20.393Z,42.75
2019-04-30T07:39:29.285Z,42.48
2019-04-30T07:44:36.211Z,42.51
2019-04-30T07:49:46.882Z,42.70
2019-04-30T07:54:39.832Z,41.90
2019-04-30T07:59:43.400Z,40.99
2019-04-30T08:04:50.938Z,40.92
2019-04-30T08:10:03.120Z,41.32
2019-04-30T08:15:09.581Z,40.17
2019-04-30T08:20:15.799Z,40.90
2019-04-30T08:25:21.282Z,40.04
2019-04-30T08:30:26.670Z,40.82
2019-04-30T08:35:29.658Z,41.38
2019-04-30T08:40:33.398Z,39.92
2019-04-30T08:45:38.592Z,39.99
2019-04-30T08:50:42.245Z,39.65
2019-04-30T08:55:46.012Z,38.37
2019-04-30T09:00:49.566Z,38.95
2019-04-30T09:05:54.737Z,37.49
2019-04-30T09:10:59.507Z,37.92
2019-04-30T09:16:03.370Z,38.28
2019-04-30T09:21:08.864Z,38.79
2019-04-30T09:26:13.062Z,38.70
2019-04-30T09:31:16.613Z,39.31
2019-04-30T09:36:20.858Z,38.82
2019-04-30T09:41:24.633Z,39.24
2019-04-30T09:46:29.930Z,39.38
2019-04-30T09:51:34.009Z,39.43
2019-04-30T09:56:39.322Z,39.27
2019-04-30T10:01:42.994Z,39.42
2019-04-30T10:06:49.926Z,39.46
2019-04-30T10:11:59.665Z,40.14
2019-04-30T10:17:20.141Z,39.91
2019-04-30T10:22:23.776Z,40.41
2019-04-30T10:27:29.363Z,40.31
2019-04-30T10:32:32.655Z,39.99
2019-04-30T10:37:36.227Z,39.57
2019-04-30T10:42:39.802Z,40.10
2019-04-30T10:47:43.472Z,40.24
2019-04-30T10:52:49.060Z,40.54
2019-04-30T10:57:52.351Z,39.80
2019-04-30T11:02:55.906Z,40.52
2019-04-30T11:07:59.602Z,40.78
2019-04-30T11:13:03.130Z,41.13
2019-04-30T11:18:06.959Z,41.30
2019-04-30T11:23:14.638Z,40.15
2019-04-30T11:28:16.663Z,41.45
2019-04-30T11:33:20.946Z,41.34
2019-04-30T11:38:24.728Z,40.78
2019-04-30T11:43:29.474Z,41.48
2019-04-30T11:48:33.042Z,41.46
2019-04-30T11:53:36.641Z,41.54
2019-04-30T11:58:40.241Z,40.93
2019-04-30T12:03:43.873Z,41.67
2019-04-30T12:09:01.104Z,40.98
2019-04-30T12:14:06.082Z,41.45
2019-04-30T12:19:09.824Z,41.42
2019-04-30T12:24:13.507Z,41.33
2019-04-30T12:29:19.122Z,41.34
2019-04-30T12:34:22.855Z,41.35
2019-04-30T12:39:29.791Z,41.45
2019-04-30T12:44:31.745Z,40.80
2019-04-30T12:49:45.708Z,41.24
2019-04-30T12:54:50.913Z,41.27
2019-04-30T12:59:54.552Z,38.61
2019-04-30T13:05:00.308Z,38.95
2019-04-30T13:10:04.241Z,38.40
2019-04-30T13:15:09.488Z,38.73
2019-04-30T13:20:20.966Z,39.28
2019-04-30T13:25:30.336Z,37.77
2019-04-30T13:30:26.936Z,37.79
2019-04-30T13:35:30.565Z,37.17
2019-04-30T13:40:41.460Z,36.60
2019-04-30T13:45:45.026Z,36.29
2019-04-30T13:50:48.855Z,36.16
2019-04-30T13:55:52.989Z,36.05
2019-04-30T14:00:57.101Z,35.10
2019-04-30T14:06:00.880Z,34.70
2019-04-30T14:11:06.001Z,34.58
2019-04-30T14:16:10.508Z,34.09
2019-04-30T14:21:14.163Z,33.31
2019-04-30T14:26:19.380Z,32.36
2019-04-30T14:31:23.116Z,33.21
2019-04-30T14:36:26.694Z,32.99
2019-04-30T14:41:32.510Z,32.38
2019-04-30T14:46:54.194Z,32.50
2019-04-30T14:51:59.556Z,31.47
2019-04-30T14:57:17.137Z,31.44
2019-04-30T15:02:22.343Z,31.72
2019-04-30T15:07:26.290Z,31.48
2019-04-30T15:12:30.050Z,31.67
2019-04-30T15:17:33.609Z,32.52
2019-04-30T15:22:38.972Z,32.58
2019-04-30T15:27:45.219Z,32.33
2019-04-30T15:32:50.100Z,32.66
2019-04-30T15:37:55.258Z,33.18
2019-04-30T15:43:02.416Z,33.11
2019-04-30T15:48:05.756Z,33.14
2019-04-30T15:53:09.505Z,33.66
2019-04-30T15:58:14.651Z,33.67
2019-04-30T16:03:19.811Z,33.65
2019-04-30T16:08:30.813Z,33.65
2019-04-30T16:13:39.533Z,33.79
2019-04-30T16:18:49.378Z,34.00
2019-04-30T16:23:53.239Z,33.97
2019-04-30T16:28:58.505Z,33.65
2019-04-30T16:34:02.394Z,33.20
2019-04-30T16:39:08.750Z,33.43
2019-04-30T16:44:30.895Z,34.47
2019-04-30T16:49:34.513Z,34.06
2019-04-30T16:54:39.527Z,34.61
2019-04-30T16:59:43.269Z,34.63
2019-04-30T17:04:53.932Z,34.49
2019-04-30T17:10:01.845Z,34.46
2019-04-30T17:15:19.264Z,35.51
2019-04-30T17:20:22.993Z,36.13
2019-04-30T17:25:26.575Z,35.97
2019-04-30T17:30:30.273Z,36.63
2019-04-30T17:35:33.821Z,36.75
2019-04-30T17:40:38.947Z,37.07
2019-04-30T17:45:43.052Z,37.85
2019-04-30T17:50:46.703Z,37.64
2019-04-30T17:55:50.371Z,38.09
2019-04-30T18:00:55.541Z,38.29
2019-04-30T18:05:59.294Z,38.88
2019-04-30T18:11:02.953Z,38.95
2019-04-30T18:16:06.524Z,39.08
2019-04-30T18:21:28.202Z,40.03
2019-04-30T18:26:32.675Z,40.26
2019-04-30T18:31:36.507Z,39.89
2019-04-30T18:36:40.102Z,41.06
2019-04-30T18:41:43.738Z,39.83
2019-04-30T18:46:49.093Z,39.63
2019-04-30T18:51:52.774Z,38.49
2019-04-30T18:56:56.371Z,38.88
2019-04-30T19:01:59.925Z,38.58
2019-04-30T19:07:05.110Z,38.58
2019-04-30T19:12:11.206Z,37.13
2019-04-30T19:17:32.790Z,38.01
2019-04-30T19:22:36.500Z,36.78
2019-04-30T19:27:40.139Z,36.33
2019-04-30T19:32:43.763Z,35.88
2019-04-30T19:37:48.676Z,35.70
2019-04-30T19:42:52.594Z,35.67
2019-04-30T19:47:56.194Z,35.71
2019-04-30T19:52:59.756Z,35.66
2019-04-30T19:58:03.688Z,35.73
2019-04-30T20:03:08.849Z,35.81
2019-04-30T20:08:12.707Z,35.76
2019-04-30T20:13:30.893Z,36.47
2019-04-30T20:18:21.585Z,37.09
2019-04-30T20:23:25.247Z,36.82
2019-04-30T20:28:38.896Z,36.75
2019-04-30T20:33:34.135Z,36.42
2019-04-30T20:38:39.313Z,37.00
2019-04-30T20:43:42.861Z,37.47
2019-04-30T20:48:46.422Z,37.82
2019-04-30T20:53:50.000Z,38.35
2019-04-30T20:58:57.364Z,38.73
2019-04-30T21:03:58.870Z,39.31
2019-04-30T21:09:02.484Z,39.66
2019-04-30T21:14:06.026Z,40.04
2019-04-30T21:19:09.604Z,40.37
2019-04-30T21:24:13.211Z,40.93
2019-04-30T21:29:18.749Z,41.33
2019-04-30T21:34:39.864Z,41.42
2019-04-30T21:39:43.765Z,41.87
2019-04-30T21:44:47.313Z,42.03
2019-04-30T21:49:50.913Z,42.24
2019-04-30T21:54:54.496Z,42.57
2019-04-30T21:59:58.794Z,42.79
2019-04-30T22:05:02.441Z,42.92
2019-04-30T22:10:07.307Z,43.36
2019-04-30T22:15:12.447Z,43.73
2019-04-30T22:20:16.018Z,43.66
2019-04-30T22:25:19.588Z,43.94
2019-04-30T22:30:23.196Z,44.02
2019-04-30T22:35:28.557Z,44.02
2019-04-30T22:40:32.200Z,43.81
2019-04-30T22:45:49.973Z,43.75
2019-04-30T22:50:53.551Z,44.54
2019-04-30T22:55:57.126Z,44.54
2019-04-30T23:01:11.091Z,44.37
2019-04-30T23:06:14.674Z,44.48
2019-04-30T23:11:18.282Z,44.15
2019-04-30T23:16:21.828Z,44.38
2019-04-30T23:21:25.436Z,44.51
2019-04-30T23:26:29.053Z,44.79
2019-04-30T23:31:32.770Z,45.01
2019-04-30T23:36:36.327Z,45.12
2019-04-30T23:41:39.927Z,45.17
2019-04-30T23:46:43.484Z,45.24
2019-04-30T23:51:47.046Z,45.25
2019-04-30T23:56:50.755Z,45.87
